sensor_id;sensor_type;location;lat;lon;timestamp;P1;durP1;ratioP1;P2;durP2;ratioP2
26040;SDS011;13816;53.628;9.950;2022-12-11T00:01:29;11.43;;;8.10;;
26040;SDS011;13816;53.628;9.950;2022-12-11T00:04:16;12.10;;;8.47;;
26040;SDS011;13816;53.628;9.950;2022-12-11T00:07:33;10.57;;;7.70;;
26040;SDS011;13816;53.628;9.950;2022-12-11T00:10:20;14.77;;;8.80;;
26040;SDS011;13816;53.628;9.950;2022-12-11T00:12:55;10.10;;;7.40;;
26040;SDS011;13816;53.628;9.950;2022-12-11T00:15:24;12.13;;;8.10;;
26040;SDS011;13816;53.628;9.950;2022-12-11T00:18:19;9.73;;;7.47;;
26040;SDS011;13816;53.628;9.950;2022-12-11T00:21:07;9.70;;;6.90;;
26040;SDS011;13816;53.628;9.950;2022-12-11T00:23:48;10.30;;;7.50;;
26040;SDS011;13816;53.628;9.950;2022-12-11T00:27:12;9.87;;;7.07;;
26040;SDS011;13816;53.628;9.950;2022-12-11T00:29:21;13.13;;;7.80;;
26040;SDS011;13816;53.628;9.950;2022-12-11T00:31:58;9.43;;;7.10;;
26040;SDS011;13816;53.628;9.950;2022-12-11T00:34:30;10.23;;;7.50;;
26040;SDS011;13816;53.628;9.950;2022-12-11T00:39:54;13.80;;;9.30;;
26040;SDS011;13816;53.628;9.950;2022-12-11T00:45:29;10.20;;;8.30;;
26040;SDS011;13816;53.628;9.950;2022-12-11T00:47:58;9.10;;;7.43;;
26040;SDS011;13816;53.628;9.950;2022-12-11T00:54:05;11.70;;;9.20;;
26040;SDS011;13816;53.628;9.950;2022-12-11T00:57:23;11.07;;;8.70;;
26040;SDS011;13816;53.628;9.950;2022-12-11T00:59:56;12.83;;;8.17;;
26040;SDS011;13816;53.628;9.950;2022-12-11T01:02:32;11.83;;;9.10;;
26040;SDS011;13816;53.628;9.950;2022-12-11T01:05:27;12.23;;;8.60;;
26040;SDS011;13816;53.628;9.950;2022-12-11T01:08:03;10.80;;;8.03;;
26040;SDS011;13816;53.628;9.950;2022-12-11T01:13:14;10.73;;;8.50;;
26040;SDS011;13816;53.628;9.950;2022-12-11T01:15:56;12.03;;;8.73;;
26040;SDS011;13816;53.628;9.950;2022-12-11T01:18:53;13.83;;;8.20;;
26040;SDS011;13816;53.628;9.950;2022-12-11T01:21:34;9.87;;;7.47;;
26040;SDS011;13816;53.628;9.950;2022-12-11T01:24:13;13.10;;;8.77;;
26040;SDS011;13816;53.628;9.950;2022-12-11T01:26:49;10.20;;;7.77;;
26040;SDS011;13816;53.628;9.950;2022-12-11T01:29:22;12.83;;;8.37;;
26040;SDS011;13816;53.628;9.950;2022-12-11T01:32:00;10.80;;;7.90;;
26040;SDS011;13816;53.628;9.950;2022-12-11T01:34:30;13.20;;;9.10;;
26040;SDS011;13816;53.628;9.950;2022-12-11T01:37:00;13.03;;;9.10;;
26040;SDS011;13816;53.628;9.950;2022-12-11T01:39:29;11.23;;;7.97;;
26040;SDS011;13816;53.628;9.950;2022-12-11T01:42:16;11.23;;;7.33;;
26040;SDS011;13816;53.628;9.950;2022-12-11T01:47:58;12.07;;;8.00;;
26040;SDS011;13816;53.628;9.950;2022-12-11T01:50:59;13.40;;;8.60;;
26040;SDS011;13816;53.628;9.950;2022-12-11T01:53:33;12.90;;;8.57;;
26040;SDS011;13816;53.628;9.950;2022-12-11T01:56:02;11.73;;;7.70;;
26040;SDS011;13816;53.628;9.950;2022-12-11T01:58:45;14.73;;;8.40;;
26040;SDS011;13816;53.628;9.950;2022-12-11T02:01:37;10.00;;;8.33;;
26040;SDS011;13816;53.628;9.950;2022-12-11T02:04:37;12.40;;;8.10;;
26040;SDS011;13816;53.628;9.950;2022-12-11T02:07:08;10.87;;;8.67;;
26040;SDS011;13816;53.628;9.950;2022-12-11T02:09:34;11.70;;;8.20;;
26040;SDS011;13816;53.628;9.950;2022-12-11T02:12:25;14.00;;;9.70;;
26040;SDS011;13816;53.628;9.950;2022-12-11T02:15:24;14.33;;;9.00;;
26040;SDS011;13816;53.628;9.950;2022-12-11T02:37:31;14.30;;;8.53;;
26040;SDS011;13816;53.628;9.950;2022-12-11T02:40:44;12.80;;;9.57;;
26040;SDS011;13816;53.628;9.950;2022-12-11T02:43:14;12.33;;;8.80;;
26040;SDS011;13816;53.628;9.950;2022-12-11T02:46:07;12.63;;;8.60;;
26040;SDS011;13816;53.628;9.950;2022-12-11T02:48:36;12.97;;;9.10;;
26040;SDS011;13816;53.628;9.950;2022-12-11T02:51:10;12.93;;;8.63;;
26040;SDS011;13816;53.628;9.950;2022-12-11T02:53:39;11.80;;;8.70;;
26040;SDS011;13816;53.628;9.950;2022-12-11T03:02:22;15.83;;;9.63;;
26040;SDS011;13816;53.628;9.950;2022-12-11T03:05:13;11.60;;;8.30;;
26040;SDS011;13816;53.628;9.950;2022-12-11T03:07:46;15.27;;;8.83;;
26040;SDS011;13816;53.628;9.950;2022-12-11T03:10:18;12.90;;;8.30;;
26040;SDS011;13816;53.628;9.950;2022-12-11T03:12:51;11.03;;;8.80;;
26040;SDS011;13816;53.628;9.950;2022-12-11T03:15:22;13.23;;;8.90;;
26040;SDS011;13816;53.628;9.950;2022-12-11T03:24:06;14.40;;;9.40;;
26040;SDS011;13816;53.628;9.950;2022-12-11T03:29:24;16.60;;;9.70;;
26040;SDS011;13816;53.628;9.950;2022-12-11T03:32:11;12.90;;;9.47;;
26040;SDS011;13816;53.628;9.950;2022-12-11T03:34:45;16.00;;;9.70;;
26040;SDS011;13816;53.628;9.950;2022-12-11T03:37:15;15.47;;;9.73;;
26040;SDS011;13816;53.628;9.950;2022-12-11T03:39:53;16.63;;;10.27;;
26040;SDS011;13816;53.628;9.950;2022-12-11T03:42:28;15.13;;;10.93;;
26040;SDS011;13816;53.628;9.950;2022-12-11T03:44:57;18.40;;;11.17;;
26040;SDS011;13816;53.628;9.950;2022-12-11T03:47:30;18.40;;;11.87;;
26040;SDS011;13816;53.628;9.950;2022-12-11T03:50:03;16.97;;;11.00;;
26040;SDS011;13816;53.628;9.950;2022-12-11T03:52:35;17.43;;;11.27;;
26040;SDS011;13816;53.628;9.950;2022-12-11T03:55:09;17.77;;;12.47;;
26040;SDS011;13816;53.628;9.950;2022-12-11T03:57:52;16.73;;;11.60;;
26040;SDS011;13816;53.628;9.950;2022-12-11T04:00:33;16.97;;;11.10;;
26040;SDS011;13816;53.628;9.950;2022-12-11T04:03:10;18.17;;;12.93;;
26040;SDS011;13816;53.628;9.950;2022-12-11T04:05:44;16.33;;;12.37;;
26040;SDS011;13816;53.628;9.950;2022-12-11T04:08:10;14.37;;;10.83;;
26040;SDS011;13816;53.628;9.950;2022-12-11T04:13:34;19.80;;;13.57;;
26040;SDS011;13816;53.628;9.950;2022-12-11T04:16:00;15.90;;;10.90;;
26040;SDS011;13816;53.628;9.950;2022-12-11T04:18:26;16.20;;;11.03;;
26040;SDS011;13816;53.628;9.950;2022-12-11T04:21:14;19.40;;;11.63;;
26040;SDS011;13816;53.628;9.950;2022-12-11T04:23:59;18.70;;;12.87;;
26040;SDS011;13816;53.628;9.950;2022-12-11T04:26:50;15.10;;;11.23;;
26040;SDS011;13816;53.628;9.950;2022-12-11T04:29:24;16.63;;;12.00;;
26040;SDS011;13816;53.628;9.950;2022-12-11T04:31:50;17.90;;;11.47;;
26040;SDS011;13816;53.628;9.950;2022-12-11T04:34:34;16.97;;;11.20;;
26040;SDS011;13816;53.628;9.950;2022-12-11T04:37:10;16.83;;;11.83;;
26040;SDS011;13816;53.628;9.950;2022-12-11T04:39:40;14.30;;;10.60;;
26040;SDS011;13816;53.628;9.950;2022-12-11T04:42:14;17.30;;;11.30;;
26040;SDS011;13816;53.628;9.950;2022-12-11T04:45:00;16.60;;;11.63;;
26040;SDS011;13816;53.628;9.950;2022-12-11T04:48:14;15.37;;;10.63;;
26040;SDS011;13816;53.628;9.950;2022-12-11T04:50:43;18.60;;;11.53;;
26040;SDS011;13816;53.628;9.950;2022-12-11T04:53:12;19.60;;;11.47;;
26040;SDS011;13816;53.628;9.950;2022-12-11T04:55:48;16.77;;;10.30;;
26040;SDS011;13816;53.628;9.950;2022-12-11T04:58:17;15.17;;;11.00;;
26040;SDS011;13816;53.628;9.950;2022-12-11T05:09:35;17.23;;;11.60;;
26040;SDS011;13816;53.628;9.950;2022-12-11T05:12:11;18.57;;;11.80;;
26040;SDS011;13816;53.628;9.950;2022-12-11T05:17:40;15.40;;;10.67;;
26040;SDS011;13816;53.628;9.950;2022-12-11T05:20:08;19.00;;;12.27;;
26040;SDS011;13816;53.628;9.950;2022-12-11T05:22:47;17.20;;;11.90;;
26040;SDS011;13816;53.628;9.950;2022-12-11T05:25:16;17.30;;;12.47;;
26040;SDS011;13816;53.628;9.950;2022-12-11T05:27:59;15.30;;;11.50;;
26040;SDS011;13816;53.628;9.950;2022-12-11T05:30:39;18.63;;;12.90;;
26040;SDS011;13816;53.628;9.950;2022-12-11T05:33:11;18.60;;;12.53;;
26040;SDS011;13816;53.628;9.950;2022-12-11T05:38:27;16.07;;;11.87;;
26040;SDS011;13816;53.628;9.950;2022-12-11T05:40:54;17.33;;;11.90;;
26040;SDS011;13816;53.628;9.950;2022-12-11T05:46:25;17.90;;;12.40;;
26040;SDS011;13816;53.628;9.950;2022-12-11T05:48:57;20.13;;;13.33;;
26040;SDS011;13816;53.628;9.950;2022-12-11T05:51:29;16.40;;;11.77;;
26040;SDS011;13816;53.628;9.950;2022-12-11T05:53:58;17.07;;;12.30;;
26040;SDS011;13816;53.628;9.950;2022-12-11T05:56:32;20.92;;;13.95;;
26040;SDS011;13816;53.628;9.950;2022-12-11T05:59:02;18.45;;;14.38;;
26040;SDS011;13816;53.628;9.950;2022-12-11T06:01:39;20.70;;;14.60;;
26040;SDS011;13816;53.628;9.950;2022-12-11T06:04:06;21.20;;;13.77;;
26040;SDS011;13816;53.628;9.950;2022-12-11T06:06:35;17.60;;;12.27;;
26040;SDS011;13816;53.628;9.950;2022-12-11T06:09:04;18.03;;;12.80;;
26040;SDS011;13816;53.628;9.950;2022-12-11T06:11:31;20.37;;;13.27;;
26040;SDS011;13816;53.628;9.950;2022-12-11T06:14:06;19.97;;;13.07;;
26040;SDS011;13816;53.628;9.950;2022-12-11T06:16:33;17.00;;;12.20;;
26040;SDS011;13816;53.628;9.950;2022-12-11T06:18:59;16.90;;;11.90;;
26040;SDS011;13816;53.628;9.950;2022-12-11T06:21:36;18.40;;;12.50;;
26040;SDS011;13816;53.628;9.950;2022-12-11T06:24:02;16.70;;;12.63;;
26040;SDS011;13816;53.628;9.950;2022-12-11T06:26:29;19.13;;;13.23;;
26040;SDS011;13816;53.628;9.950;2022-12-11T06:29:01;18.97;;;12.27;;
26040;SDS011;13816;53.628;9.950;2022-12-11T06:31:36;18.87;;;13.53;;
26040;SDS011;13816;53.628;9.950;2022-12-11T06:34:03;16.20;;;12.10;;
26040;SDS011;13816;53.628;9.950;2022-12-11T06:36:37;19.00;;;12.77;;
26040;SDS011;13816;53.628;9.950;2022-12-11T06:39:03;16.37;;;13.10;;
26040;SDS011;13816;53.628;9.950;2022-12-11T06:41:37;22.33;;;13.67;;
26040;SDS011;13816;53.628;9.950;2022-12-11T06:44:07;17.80;;;12.80;;
26040;SDS011;13816;53.628;9.950;2022-12-11T06:46:41;19.67;;;13.80;;
26040;SDS011;13816;53.628;9.950;2022-12-11T06:49:08;22.03;;;14.37;;
26040;SDS011;13816;53.628;9.950;2022-12-11T06:51:36;21.60;;;15.10;;
26040;SDS011;13816;53.628;9.950;2022-12-11T06:54:06;19.23;;;13.53;;
26040;SDS011;13816;53.628;9.950;2022-12-11T06:56:35;25.47;;;16.60;;
26040;SDS011;13816;53.628;9.950;2022-12-11T06:59:10;19.53;;;14.17;;
26040;SDS011;13816;53.628;9.950;2022-12-11T07:01:39;21.47;;;13.03;;
26040;SDS011;13816;53.628;9.950;2022-12-11T07:04:08;21.80;;;14.00;;
26040;SDS011;13816;53.628;9.950;2022-12-11T07:06:39;23.17;;;15.27;;
26040;SDS011;13816;53.628;9.950;2022-12-11T07:09:06;20.90;;;14.30;;
26040;SDS011;13816;53.628;9.950;2022-12-11T07:11:38;24.50;;;17.10;;
26040;SDS011;13816;53.628;9.950;2022-12-11T07:14:08;21.60;;;14.60;;
26040;SDS011;13816;53.628;9.950;2022-12-11T07:16:39;23.97;;;14.20;;
26040;SDS011;13816;53.628;9.950;2022-12-11T07:19:08;22.37;;;14.30;;
26040;SDS011;13816;53.628;9.950;2022-12-11T07:21:37;21.23;;;14.57;;
26040;SDS011;13816;53.628;9.950;2022-12-11T07:24:06;22.40;;;14.43;;
26040;SDS011;13816;53.628;9.950;2022-12-11T07:26:44;21.83;;;15.10;;
26040;SDS011;13816;53.628;9.950;2022-12-11T07:29:17;25.40;;;16.70;;
26040;SDS011;13816;53.628;9.950;2022-12-11T07:31:52;33.20;;;19.87;;
26040;SDS011;13816;53.628;9.950;2022-12-11T07:34:18;25.90;;;17.73;;
26040;SDS011;13816;53.628;9.950;2022-12-11T07:36:47;25.53;;;16.37;;
26040;SDS011;13816;53.628;9.950;2022-12-11T07:39:18;22.07;;;14.80;;
26040;SDS011;13816;53.628;9.950;2022-12-11T07:41:45;24.53;;;15.97;;
26040;SDS011;13816;53.628;9.950;2022-12-11T07:44:18;26.40;;;17.50;;
26040;SDS011;13816;53.628;9.950;2022-12-11T07:46:50;24.50;;;17.40;;
26040;SDS011;13816;53.628;9.950;2022-12-11T07:49:19;22.83;;;16.17;;
26040;SDS011;13816;53.628;9.950;2022-12-11T07:51:48;25.00;;;16.50;;
26040;SDS011;13816;53.628;9.950;2022-12-11T07:54:16;30.00;;;18.50;;
26040;SDS011;13816;53.628;9.950;2022-12-11T07:56:47;26.63;;;18.17;;
26040;SDS011;13816;53.628;9.950;2022-12-11T07:59:23;32.67;;;20.37;;
26040;SDS011;13816;53.628;9.950;2022-12-11T08:01:49;29.43;;;17.67;;
26040;SDS011;13816;53.628;9.950;2022-12-11T08:04:21;35.03;;;19.57;;
26040;SDS011;13816;53.628;9.950;2022-12-11T08:06:56;28.70;;;19.50;;
26040;SDS011;13816;53.628;9.950;2022-12-11T08:09:41;27.40;;;18.10;;
26040;SDS011;13816;53.628;9.950;2022-12-11T08:12:11;27.07;;;17.27;;
26040;SDS011;13816;53.628;9.950;2022-12-11T08:14:40;30.10;;;19.23;;
26040;SDS011;13816;53.628;9.950;2022-12-11T08:17:16;25.93;;;16.90;;
26040;SDS011;13816;53.628;9.950;2022-12-11T08:19:44;25.40;;;15.80;;
26040;SDS011;13816;53.628;9.950;2022-12-11T08:22:13;25.10;;;16.90;;
26040;SDS011;13816;53.628;9.950;2022-12-11T08:24:39;23.92;;;16.63;;
26040;SDS011;13816;53.628;9.950;2022-12-11T08:27:08;28.30;;;16.20;;
26040;SDS011;13816;53.628;9.950;2022-12-11T08:29:40;22.40;;;15.57;;
26040;SDS011;13816;53.628;9.950;2022-12-11T08:32:07;24.50;;;17.17;;
26040;SDS011;13816;53.628;9.950;2022-12-11T08:34:33;28.50;;;17.20;;
26040;SDS011;13816;53.628;9.950;2022-12-11T08:37:02;25.50;;;16.70;;
26040;SDS011;13816;53.628;9.950;2022-12-11T08:39:28;28.47;;;17.87;;
26040;SDS011;13816;53.628;9.950;2022-12-11T08:41:55;25.00;;;15.53;;
26040;SDS011;13816;53.628;9.950;2022-12-11T08:44:21;21.33;;;14.37;;
26040;SDS011;13816;53.628;9.950;2022-12-11T08:46:53;22.57;;;15.20;;
26040;SDS011;13816;53.628;9.950;2022-12-11T08:49:21;25.40;;;15.80;;
26040;SDS011;13816;53.628;9.950;2022-12-11T08:51:48;24.27;;;15.10;;
26040;SDS011;13816;53.628;9.950;2022-12-11T08:54:17;26.17;;;16.37;;
26040;SDS011;13816;53.628;9.950;2022-12-11T08:56:43;26.07;;;16.57;;
26040;SDS011;13816;53.628;9.950;2022-12-11T08:59:12;28.63;;;17.13;;
26040;SDS011;13816;53.628;9.950;2022-12-11T09:01:38;27.20;;;18.07;;
26040;SDS011;13816;53.628;9.950;2022-12-11T09:04:04;30.30;;;19.30;;
26040;SDS011;13816;53.628;9.950;2022-12-11T09:06:31;29.97;;;19.23;;
26040;SDS011;13816;53.628;9.950;2022-12-11T09:09:00;27.27;;;17.10;;
26040;SDS011;13816;53.628;9.950;2022-12-11T09:11:28;23.70;;;16.07;;
26040;SDS011;13816;53.628;9.950;2022-12-11T09:13:55;24.53;;;15.87;;
26040;SDS011;13816;53.628;9.950;2022-12-11T09:16:24;25.23;;;15.17;;
26040;SDS011;13816;53.628;9.950;2022-12-11T09:18:52;23.23;;;14.63;;
26040;SDS011;13816;53.628;9.950;2022-12-11T09:21:19;24.43;;;16.03;;
26040;SDS011;13816;53.628;9.950;2022-12-11T09:23:46;27.40;;;16.87;;
26040;SDS011;13816;53.628;9.950;2022-12-11T09:26:17;26.02;;;18.00;;
26040;SDS011;13816;53.628;9.950;2022-12-11T09:28:46;24.33;;;16.80;;
26040;SDS011;13816;53.628;9.950;2022-12-11T09:31:27;23.08;;;17.30;;
26040;SDS011;13816;53.628;9.950;2022-12-11T09:33:57;24.70;;;17.53;;
26040;SDS011;13816;53.628;9.950;2022-12-11T09:36:29;27.07;;;15.70;;
26040;SDS011;13816;53.628;9.950;2022-12-11T09:39:03;22.53;;;16.37;;
26040;SDS011;13816;53.628;9.950;2022-12-11T09:44:59;22.80;;;16.30;;
26040;SDS011;13816;53.628;9.950;2022-12-11T09:47:37;21.87;;;15.20;;
26040;SDS011;13816;53.628;9.950;2022-12-11T09:50:34;21.23;;;15.37;;
26040;SDS011;13816;53.628;9.950;2022-12-11T09:53:10;19.07;;;13.03;;
26040;SDS011;13816;53.628;9.950;2022-12-11T10:04:23;19.70;;;13.03;;
26040;SDS011;13816;53.628;9.950;2022-12-11T10:07:03;18.80;;;13.50;;
26040;SDS011;13816;53.628;9.950;2022-12-11T10:09:50;21.40;;;14.07;;
26040;SDS011;13816;53.628;9.950;2022-12-11T10:12:44;19.20;;;13.27;;
26040;SDS011;13816;53.628;9.950;2022-12-11T10:17:58;19.13;;;12.77;;
26040;SDS011;13816;53.628;9.950;2022-12-11T10:20:34;19.37;;;13.57;;
26040;SDS011;13816;53.628;9.950;2022-12-11T10:26:20;18.43;;;13.07;;
26040;SDS011;13816;53.628;9.950;2022-12-11T10:28:58;16.63;;;11.43;;
26040;SDS011;13816;53.628;9.950;2022-12-11T10:34:39;21.07;;;12.80;;
26040;SDS011;13816;53.628;9.950;2022-12-11T10:37:13;19.37;;;13.50;;
26040;SDS011;13816;53.628;9.950;2022-12-11T10:40:37;21.47;;;13.93;;
26040;SDS011;13816;53.628;9.950;2022-12-11T10:43:31;21.83;;;14.40;;
26040;SDS011;13816;53.628;9.950;2022-12-11T10:49:04;22.70;;;15.20;;
26040;SDS011;13816;53.628;9.950;2022-12-11T10:54:43;19.23;;;13.00;;
26040;SDS011;13816;53.628;9.950;2022-12-11T10:57:26;25.37;;;13.30;;
26040;SDS011;13816;53.628;9.950;2022-12-11T11:00:03;19.00;;;13.20;;
26040;SDS011;13816;53.628;9.950;2022-12-11T11:05:42;20.90;;;13.50;;
26040;SDS011;13816;53.628;9.950;2022-12-11T11:08:17;19.70;;;14.07;;
26040;SDS011;13816;53.628;9.950;2022-12-11T11:11:26;21.10;;;13.93;;
26040;SDS011;13816;53.628;9.950;2022-12-11T11:16:57;19.10;;;14.00;;
26040;SDS011;13816;53.628;9.950;2022-12-11T11:19:34;21.63;;;13.93;;
26040;SDS011;13816;53.628;9.950;2022-12-11T11:29:14;19.27;;;12.70;;
26040;SDS011;13816;53.628;9.950;2022-12-11T11:32:16;20.13;;;13.37;;
26040;SDS011;13816;53.628;9.950;2022-12-11T11:35:00;19.20;;;12.63;;
26040;SDS011;13816;53.628;9.950;2022-12-11T11:37:30;17.65;;;12.40;;
26040;SDS011;13816;53.628;9.950;2022-12-11T11:40:00;23.73;;;14.13;;
26040;SDS011;13816;53.628;9.950;2022-12-11T11:42:36;22.27;;;14.40;;
26040;SDS011;13816;53.628;9.950;2022-12-11T11:45:16;22.53;;;13.03;;
26040;SDS011;13816;53.628;9.950;2022-12-11T11:47:55;20.87;;;14.77;;
26040;SDS011;13816;53.628;9.950;2022-12-11T11:50:25;20.90;;;13.43;;
26040;SDS011;13816;53.628;9.950;2022-12-11T11:53:40;24.00;;;15.10;;
26040;SDS011;13816;53.628;9.950;2022-12-11T11:56:40;19.40;;;13.33;;
26040;SDS011;13816;53.628;9.950;2022-12-11T12:02:14;21.50;;;14.47;;
26040;SDS011;13816;53.628;9.950;2022-12-11T12:04:40;20.50;;;12.97;;
26040;SDS011;13816;53.628;9.950;2022-12-11T12:07:15;18.83;;;13.07;;
26040;SDS011;13816;53.628;9.950;2022-12-11T12:12:31;20.53;;;13.10;;
26040;SDS011;13816;53.628;9.950;2022-12-11T12:17:57;20.33;;;13.60;;
26040;SDS011;13816;53.628;9.950;2022-12-11T12:20:28;19.97;;;13.53;;
26040;SDS011;13816;53.628;9.950;2022-12-11T12:25:48;20.93;;;13.47;;
26040;SDS011;13816;53.628;9.950;2022-12-11T12:40:39;19.33;;;12.63;;
26040;SDS011;13816;53.628;9.950;2022-12-11T12:45:47;19.77;;;13.03;;
26040;SDS011;13816;53.628;9.950;2022-12-11T12:48:31;27.03;;;14.47;;
26040;SDS011;13816;53.628;9.950;2022-12-11T12:53:32;20.00;;;12.70;;
26040;SDS011;13816;53.628;9.950;2022-12-11T12:55:58;23.77;;;14.30;;
26040;SDS011;13816;53.628;9.950;2022-12-11T13:01:05;18.03;;;12.87;;
26040;SDS011;13816;53.628;9.950;2022-12-11T13:03:34;21.30;;;13.57;;
26040;SDS011;13816;53.628;9.950;2022-12-11T13:06:02;24.83;;;15.10;;
26040;SDS011;13816;53.628;9.950;2022-12-11T13:08:41;22.50;;;13.13;;
26040;SDS011;13816;53.628;9.950;2022-12-11T13:11:09;21.27;;;12.13;;
26040;SDS011;13816;53.628;9.950;2022-12-11T13:13:41;16.40;;;11.50;;
26040;SDS011;13816;53.628;9.950;2022-12-11T13:18:43;18.83;;;11.90;;
26040;SDS011;13816;53.628;9.950;2022-12-11T13:24:15;16.83;;;11.93;;
26040;SDS011;13816;53.628;9.950;2022-12-11T13:26:42;18.27;;;12.47;;
26040;SDS011;13816;53.628;9.950;2022-12-11T13:31:58;17.70;;;12.13;;
26040;SDS011;13816;53.628;9.950;2022-12-11T13:34:26;20.90;;;14.40;;
26040;SDS011;13816;53.628;9.950;2022-12-11T13:36:53;19.93;;;13.67;;
26040;SDS011;13816;53.628;9.950;2022-12-11T13:39:26;24.53;;;15.97;;
26040;SDS011;13816;53.628;9.950;2022-12-11T13:41:56;31.30;;;18.10;;
26040;SDS011;13816;53.628;9.950;2022-12-11T13:44:45;23.83;;;14.90;;
26040;SDS011;13816;53.628;9.950;2022-12-11T13:47:16;22.57;;;14.37;;
26040;SDS011;13816;53.628;9.950;2022-12-11T13:49:44;21.40;;;14.60;;
26040;SDS011;13816;53.628;9.950;2022-12-11T13:52:22;22.90;;;14.43;;
26040;SDS011;13816;53.628;9.950;2022-12-11T13:54:53;17.43;;;13.00;;
26040;SDS011;13816;53.628;9.950;2022-12-11T13:57:24;20.77;;;13.30;;
26040;SDS011;13816;53.628;9.950;2022-12-11T13:59:53;20.05;;;14.75;;
26040;SDS011;13816;53.628;9.950;2022-12-11T14:04:49;23.10;;;13.47;;
26040;SDS011;13816;53.628;9.950;2022-12-11T14:07:19;22.30;;;14.40;;
26040;SDS011;13816;53.628;9.950;2022-12-11T14:09:48;20.47;;;14.30;;
26040;SDS011;13816;53.628;9.950;2022-12-11T14:12:19;19.97;;;13.23;;
26040;SDS011;13816;53.628;9.950;2022-12-11T14:14:52;20.10;;;14.20;;
26040;SDS011;13816;53.628;9.950;2022-12-11T14:17:22;23.73;;;15.00;;
26040;SDS011;13816;53.628;9.950;2022-12-11T14:19:50;21.97;;;14.53;;
26040;SDS011;13816;53.628;9.950;2022-12-11T14:22:21;20.93;;;13.93;;
26040;SDS011;13816;53.628;9.950;2022-12-11T14:24:48;21.03;;;13.93;;
26040;SDS011;13816;53.628;9.950;2022-12-11T14:27:16;21.03;;;13.30;;
26040;SDS011;13816;53.628;9.950;2022-12-11T14:29:43;19.97;;;13.53;;
26040;SDS011;13816;53.628;9.950;2022-12-11T14:32:12;24.33;;;13.70;;
26040;SDS011;13816;53.628;9.950;2022-12-11T14:34:42;20.73;;;13.63;;
26040;SDS011;13816;53.628;9.950;2022-12-11T14:37:09;20.63;;;14.40;;
26040;SDS011;13816;53.628;9.950;2022-12-11T14:39:39;21.03;;;13.37;;
26040;SDS011;13816;53.628;9.950;2022-12-11T14:42:13;20.52;;;14.68;;
26040;SDS011;13816;53.628;9.950;2022-12-11T14:44:50;21.87;;;15.30;;
26040;SDS011;13816;53.628;9.950;2022-12-11T14:47:28;21.70;;;14.03;;
26040;SDS011;13816;53.628;9.950;2022-12-11T14:52:28;24.17;;;15.77;;
26040;SDS011;13816;53.628;9.950;2022-12-11T14:55:00;26.90;;;13.97;;
26040;SDS011;13816;53.628;9.950;2022-12-11T14:57:27;20.27;;;13.77;;
26040;SDS011;13816;53.628;9.950;2022-12-11T14:59:54;21.00;;;13.97;;
26040;SDS011;13816;53.628;9.950;2022-12-11T15:05:02;22.00;;;14.57;;
26040;SDS011;13816;53.628;9.950;2022-12-11T15:07:28;20.40;;;12.23;;
26040;SDS011;13816;53.628;9.950;2022-12-11T15:09:54;22.97;;;13.43;;
26040;SDS011;13816;53.628;9.950;2022-12-11T15:12:20;19.60;;;14.20;;
26040;SDS011;13816;53.628;9.950;2022-12-11T15:17:13;17.50;;;12.47;;
26040;SDS011;13816;53.628;9.950;2022-12-11T15:19:39;23.40;;;14.43;;
26040;SDS011;13816;53.628;9.950;2022-12-11T15:22:07;24.17;;;14.63;;
26040;SDS011;13816;53.628;9.950;2022-12-11T15:24:38;19.97;;;13.87;;
26040;SDS011;13816;53.628;9.950;2022-12-11T15:27:05;22.60;;;14.90;;
26040;SDS011;13816;53.628;9.950;2022-12-11T15:29:36;21.43;;;13.57;;
26040;SDS011;13816;53.628;9.950;2022-12-11T15:34:32;26.70;;;15.63;;
26040;SDS011;13816;53.628;9.950;2022-12-11T15:36:59;24.20;;;14.47;;
26040;SDS011;13816;53.628;9.950;2022-12-11T15:39:25;23.93;;;15.93;;
26040;SDS011;13816;53.628;9.950;2022-12-11T15:41:54;28.40;;;16.33;;
26040;SDS011;13816;53.628;9.950;2022-12-11T15:44:20;26.00;;;15.73;;
26040;SDS011;13816;53.628;9.950;2022-12-11T15:46:48;27.10;;;17.10;;
26040;SDS011;13816;53.628;9.950;2022-12-11T15:49:14;28.73;;;18.00;;
26040;SDS011;13816;53.628;9.950;2022-12-11T15:51:43;25.90;;;17.47;;
26040;SDS011;13816;53.628;9.950;2022-12-11T15:54:09;35.03;;;20.10;;
26040;SDS011;13816;53.628;9.950;2022-12-11T15:56:35;35.50;;;22.00;;
26040;SDS011;13816;53.628;9.950;2022-12-11T15:59:02;41.47;;;23.87;;
26040;SDS011;13816;53.628;9.950;2022-12-11T16:01:28;35.33;;;20.87;;
26040;SDS011;13816;53.628;9.950;2022-12-11T16:03:55;35.03;;;19.53;;
26040;SDS011;13816;53.628;9.950;2022-12-11T16:06:21;33.30;;;20.60;;
26040;SDS011;13816;53.628;9.950;2022-12-11T16:08:47;33.03;;;19.10;;
26040;SDS011;13816;53.628;9.950;2022-12-11T16:11:13;25.00;;;17.87;;
26040;SDS011;13816;53.628;9.950;2022-12-11T16:13:39;32.33;;;19.33;;
26040;SDS011;13816;53.628;9.950;2022-12-11T16:16:05;36.67;;;20.13;;
26040;SDS011;13816;53.628;9.950;2022-12-11T16:18:31;33.30;;;19.67;;
26040;SDS011;13816;53.628;9.950;2022-12-11T16:20:57;30.77;;;20.17;;
26040;SDS011;13816;53.628;9.950;2022-12-11T16:23:28;26.40;;;17.20;;
26040;SDS011;13816;53.628;9.950;2022-12-11T16:25:54;35.03;;;19.60;;
26040;SDS011;13816;53.628;9.950;2022-12-11T16:28:20;37.83;;;22.57;;
26040;SDS011;13816;53.628;9.950;2022-12-11T16:30:46;40.13;;;21.53;;
26040;SDS011;13816;53.628;9.950;2022-12-11T16:33:12;29.53;;;20.40;;
26040;SDS011;13816;53.628;9.950;2022-12-11T16:35:39;41.13;;;22.03;;
26040;SDS011;13816;53.628;9.950;2022-12-11T16:38:05;35.20;;;21.67;;
26040;SDS011;13816;53.628;9.950;2022-12-11T16:40:32;39.80;;;22.30;;
26040;SDS011;13816;53.628;9.950;2022-12-11T16:42:58;42.57;;;25.67;;
26040;SDS011;13816;53.628;9.950;2022-12-11T16:45:24;44.10;;;26.37;;
26040;SDS011;13816;53.628;9.950;2022-12-11T16:47:51;43.20;;;24.00;;
26040;SDS011;13816;53.628;9.950;2022-12-11T16:50:17;39.10;;;23.70;;
26040;SDS011;13816;53.628;9.950;2022-12-11T16:52:44;45.03;;;25.20;;
26040;SDS011;13816;53.628;9.950;2022-12-11T16:55:10;44.13;;;25.17;;
26040;SDS011;13816;53.628;9.950;2022-12-11T16:57:37;44.57;;;25.47;;
26040;SDS011;13816;53.628;9.950;2022-12-11T17:00:04;42.90;;;26.27;;
26040;SDS011;13816;53.628;9.950;2022-12-11T17:02:31;42.83;;;25.60;;
26040;SDS011;13816;53.628;9.950;2022-12-11T17:04:57;41.17;;;25.77;;
26040;SDS011;13816;53.628;9.950;2022-12-11T17:07:23;47.50;;;28.13;;
26040;SDS011;13816;53.628;9.950;2022-12-11T17:09:50;44.53;;;29.40;;
26040;SDS011;13816;53.628;9.950;2022-12-11T17:12:16;46.57;;;30.40;;
26040;SDS011;13816;53.628;9.950;2022-12-11T17:14:42;46.90;;;28.53;;
26040;SDS011;13816;53.628;9.950;2022-12-11T17:17:08;46.00;;;29.40;;
26040;SDS011;13816;53.628;9.950;2022-12-11T17:19:34;43.77;;;27.97;;
26040;SDS011;13816;53.628;9.950;2022-12-11T17:22:01;44.37;;;28.67;;
26040;SDS011;13816;53.628;9.950;2022-12-11T17:24:27;43.07;;;28.20;;
26040;SDS011;13816;53.628;9.950;2022-12-11T17:26:54;48.90;;;28.20;;
26040;SDS011;13816;53.628;9.950;2022-12-11T17:29:21;43.47;;;26.87;;
26040;SDS011;13816;53.628;9.950;2022-12-11T17:31:48;42.90;;;26.80;;
26040;SDS011;13816;53.628;9.950;2022-12-11T17:34:14;45.50;;;27.90;;
26040;SDS011;13816;53.628;9.950;2022-12-11T17:36:40;50.70;;;29.00;;
26040;SDS011;13816;53.628;9.950;2022-12-11T17:39:06;47.30;;;27.37;;
26040;SDS011;13816;53.628;9.950;2022-12-11T17:41:32;52.70;;;28.30;;